Time;durP1;ratioP1;P1;durP2;ratioP2;P2;SDS_P1;SDS_P2;PMS_P1;PMS_P2;Temp;Humidity;BMP_temperature;BMP_pressure;BME280_temperature;BME280_humidity;BME280_pressure;Samples;Min_cycle;Max_cycle;Signal;HPM_P1;HPM_P2
2021/06/18 00:01:07;;;;;;;13.05;8.13;;;;;;;18.45;87.63;101488.63;5133848;27;20442;-49
2021/06/18 00:03:36;;;;;;;13.20;8.05;;;;;;;18.46;87.53;101497.94;5133297;27;20551;-55
2021/06/18 00:06:05;;;;;;;14.55;8.73;;;;;;;18.48;87.97;101498.44;5133931;27;20515;-52
2021/06/18 00:08:33;;;;;;;14.30;9.02;;;;;;;18.48;88.08;101504.09;5133753;27;20054;-50
2021/06/18 00:11:01;;;;;;;15.40;8.75;;;;;;;18.49;88.04;101517.06;5133073;27;20072;-49
2021/06/18 00:13:29;;;;;;;14.00;8.63;;;;;;;18.50;87.96;101522.38;5126148;27;20475;-50
2021/06/18 00:15:56;;;;;;;14.57;8.80;;;;;;;18.50;87.96;101521.56;5127865;27;20043;-48
2021/06/18 00:18:28;;;;;;;14.27;8.63;;;;;;;18.49;88.03;101531.19;5133214;27;20043;-54
2021/06/18 00:20:57;;;;;;;12.73;7.88;;;;;;;18.47;88.06;101527.88;5133563;27;20464;-55
2021/06/18 00:23:27;;;;;;;10.80;6.68;;;;;;;18.46;88.27;101524.22;5133018;27;20380;-51
2021/06/18 00:25:55;;;;;;;12.25;7.53;;;;;;;18.48;88.45;101530.38;5133392;27;20100;-52
2021/06/18 00:28:23;;;;;;;13.90;8.50;;;;;;;18.46;88.34;101529.03;5133347;27;20078;-53
2021/06/18 00:30:51;;;;;;;13.07;7.15;;;;;;;18.47;88.49;101523.06;5121983;27;20051;-49
2021/06/18 00:33:19;;;;;;;10.70;7.03;;;;;;;18.48;88.54;101527.53;5133281;27;20044;-50
2021/06/18 00:35:47;;;;;;;14.60;9.20;;;;;;;18.49;88.69;101531.19;5133468;27;20096;-50
2021/06/18 00:38:16;;;;;;;14.75;9.57;;;;;;;18.47;88.55;101531.53;5132658;27;20039;-52
2021/06/18 00:40:45;;;;;;;12.07;7.68;;;;;;;18.47;88.84;101533.53;5130052;27;20385;-54
2021/06/18 00:43:13;;;;;;;12.88;9.38;;;;;;;18.48;88.91;101538.00;5133014;27;20064;-52
2021/06/18 00:45:41;;;;;;;12.60;9.05;;;;;;;18.46;88.97;101540.34;5132301;27;20503;-56
2021/06/18 00:48:10;;;;;;;14.10;9.68;;;;;;;18.47;89.00;101527.88;5132362;27;20492;-51
2021/06/18 00:50:38;;;;;;;15.73;8.95;;;;;;;18.46;89.26;101520.56;5132867;27;20453;-56
2021/06/18 00:53:07;;;;;;;13.50;8.65;;;;;;;18.46;89.23;101523.38;5132739;27;20071;-53
2021/06/18 00:55:36;;;;;;;17.33;10.50;;;;;;;18.46;89.63;101526.22;5133162;27;20183;-51
2021/06/18 00:58:04;;;;;;;14.75;10.15;;;;;;;18.43;89.67;101532.53;5115098;27;20074;-52
2021/06/18 01:00:32;;;;;;;12.15;7.28;;;;;;;18.44;89.68;101529.38;5120404;27;20524;-53
2021/06/18 01:03:01;;;;;;;12.05;8.13;;;;;;;18.46;90.06;101523.38;5132709;27;20070;-52
2021/06/18 01:05:31;;;;;;;15.00;9.63;;;;;;;18.49;89.83;101515.06;5132974;27;20054;-53
2021/06/18 01:08:10;;;;;;;15.32;8.90;;;;;;;18.48;89.85;101507.75;5132478;27;20074;-46
2021/06/18 01:10:50;;;;;;;13.60;8.10;;;;;;;18.48;90.13;101504.94;5132954;27;20074;-49
2021/06/18 01:13:28;;;;;;;13.13;8.32;;;;;;;18.48;89.96;101502.09;5132335;27;20073;-53
2021/06/18 01:16:05;;;;;;;17.20;10.48;;;;;;;18.48;90.30;101493.63;5133014;27;20073;-52
2021/06/18 01:18:39;;;;;;;17.95;11.18;;;;;;;18.48;90.54;101487.97;5132588;27;20043;-51
2021/06/18 01:21:21;;;;;;;23.52;12.55;;;;;;;18.49;90.32;101486.81;5132080;27;20042;-52
2021/06/18 01:24:12;;;;;;;21.40;11.07;;;;;;;18.49;90.51;101485.97;5132097;27;20089;-53
2021/06/18 01:27:03;;;;;;;19.70;11.20;;;;;;;18.49;90.70;101483.16;5131104;27;20320;-53
2021/06/18 01:29:37;;;;;;;22.48;13.15;;;;;;;18.51;91.15;101472.34;5132411;27;20381;-56
2021/06/18 01:32:09;;;;;;;22.58;12.48;;;;;;;18.52;90.63;101462.69;5132126;27;20047;-56
2021/06/18 01:34:38;;;;;;;;;;;;;;;18.42;91.00;101472.34;5132484;27;20112;-54
2021/06/18 01:37:12;;;;;;;20.45;11.68;;;;;;;18.44;91.42;101466.38;5132389;27;19966;-53
2021/06/18 01:39:43;;;;;;;25.02;13.50;;;;;;;18.52;91.04;101466.34;5132376;27;20046;-52
2021/06/18 01:42:12;;;;;;;23.23;14.60;;;;;;;18.56;90.93;101469.34;5131522;27;20051;-51
2021/06/18 01:44:43;;;;;;;26.73;15.95;;;;;;;18.58;90.96;101467.78;5131937;27;20043;-47
2021/06/18 01:47:14;;;;;;;27.42;15.48;;;;;;;18.60;90.98;101464.66;5132253;27;20074;-53
2021/06/18 01:49:43;;;;;;;28.20;16.33;;;;;;;18.61;91.05;101457.84;5131933;27;20035;-51
2021/06/18 01:52:13;;;;;;;23.65;15.00;;;;;;;18.63;91.29;101449.88;5132078;27;20559;-54
2021/06/18 01:54:45;;;;;;;25.23;16.35;;;;;;;18.66;91.34;101456.84;5132070;27;20468;-49
2021/06/18 01:57:17;;;;;;;21.58;13.27;;;;;;;18.68;91.72;101460.16;5131311;27;20414;-48
2021/06/18 01:59:50;;;;;;;23.65;16.23;;;;;;;18.70;91.89;101455.81;5131920;27;20460;-50
2021/06/18 02:02:19;;;;;;;19.75;14.30;;;;;;;18.72;91.79;101447.00;5131420;27;20039;-48
2021/06/18 02:04:48;;;;;;;22.70;16.40;;;;;;;18.73;92.14;101441.00;5131976;27;20129;-51
2021/06/18 02:07:17;;;;;;;23.80;17.67;;;;;;;18.74;92.01;101439.84;5132098;27;20082;-52
2021/06/18 02:09:47;;;;;;;18.95;13.30;;;;;;;18.76;92.17;101445.16;5131244;28;20411;-46
2021/06/18 02:12:17;;;;;;;20.55;14.15;;;;;;;18.79;92.29;101456.59;5132135;27;20042;-49
2021/06/18 02:14:47;;;;;;;19.90;16.23;;;;;;;18.83;92.25;101468.06;5132078;27;20388;-51
2021/06/18 02:17:16;;;;;;;19.60;15.48;;;;;;;18.86;92.42;101473.03;5131306;28;20088;-52
2021/06/18 02:19:48;;;;;;;15.75;12.05;;;;;;;18.89;92.27;101481.69;5120738;28;20381;-56
2021/06/18 02:22:19;;;;;;;15.50;13.27;;;;;;;18.93;92.43;101479.00;5123061;28;20062;-51
2021/06/18 02:24:49;;;;;;;15.48;11.50;;;;;;;18.97;92.47;101476.31;5131275;28;20051;-49
2021/06/18 02:27:19;;;;;;;14.93;13.18;;;;;;;19.01;92.07;101478.13;5131745;28;20043;-52
2021/06/18 02:29:48;;;;;;;12.70;11.40;;;;;;;19.05;92.30;101487.56;5120155;28;20071;-52
2021/06/18 02:32:17;;;;;;;17.05;14.02;;;;;;;19.08;92.04;101474.75;5131085;27;20155;-50
2021/06/18 02:34:46;;;;;;;15.85;14.18;;;;;;;19.11;92.06;101466.41;5131665;27;20048;-54
2021/06/18 02:37:14;;;;;;;14.45;12.98;;;;;;;19.14;92.15;101468.56;5131399;27;20079;-54
2021/06/18 02:39:45;;;;;;;17.13;15.27;;;;;;;19.17;92.13;101486.88;5118829;28;20095;-48
2021/06/18 02:42:13;;;;;;;18.75;16.85;;;;;;;19.18;91.89;101491.34;5131737;27;20074;-54
2021/06/18 02:44:41;;;;;;;14.93;13.07;;;;;;;19.17;92.24;101501.00;5130838;27;20047;-56
2021/06/18 02:47:15;;;;;;;20.20;16.92;;;;;;;19.19;92.30;101509.97;5131480;28;20071;-54
2021/06/18 02:49:47;;;;;;;14.13;12.35;;;;;;;19.18;92.53;101497.81;5131658;27;20441;-53
2021/06/18 02:52:18;;;;;;;;;;;;;;;19.09;92.71;101493.38;5131726;27;20043;-53
2021/06/18 02:54:57;;;;;;;13.07;11.05;;;;;;;19.09;93.62;101496.22;5131825;27;19919;-55
2021/06/18 02:57:28;;;;;;;18.05;15.02;;;;;;;19.17;93.50;101498.19;5131542;28;20493;-54
2021/06/18 03:00:03;;;;;;;21.85;18.17;;;;;;;19.17;93.60;101496.19;5131226;27;20399;-54
2021/06/18 03:02:39;;;;;;;21.25;18.35;;;;;;;19.15;93.65;101509.84;5131686;27;20043;-54
2021/06/18 03:05:09;;;;;;;20.02;16.75;;;;;;;19.15;94.08;101497.69;5131347;28;20496;-61
2021/06/18 03:07:39;;;;;;;23.90;18.55;;;;;;;19.15;94.38;101498.53;5130880;28;20403;-61
2021/06/18 03:10:09;;;;;;;24.38;20.52;;;;;;;19.16;94.67;101482.38;5131204;27;20074;-63
2021/06/18 03:12:42;;;;;;;24.02;18.95;;;;;;;19.16;95.03;101490.88;5133775;27;20046;-60
2021/06/18 03:15:11;;;;;;;30.95;23.75;;;;;;;19.15;94.96;101494.88;5134819;27;20143;-59
2021/06/18 03:17:43;;;;;;;23.33;17.17;;;;;;;19.14;95.34;101513.00;5134983;27;20070;-57
2021/06/18 03:20:15;;;;;;;27.40;21.60;;;;;;;19.16;95.72;101519.16;5134403;27;20100;-53
2021/06/18 03:22:46;;;;;;;33.53;25.80;;;;;;;19.16;95.56;101525.66;5134753;27;20055;-55
2021/06/18 03:25:15;;;;;;;26.33;21.60;;;;;;;19.17;95.56;101523.66;5134773;27;20100;-52
2021/06/18 03:27:45;;;;;;;31.48;27.10;;;;;;;19.17;95.90;101543.44;5134315;27;20035;-50
2021/06/18 03:30:14;;;;;;;33.03;27.85;;;;;;;19.18;96.00;101568.53;5134634;27;20469;-54
2021/06/18 03:32:46;;;;;;;35.70;28.15;;;;;;;19.15;95.74;101579.75;5134567;27;20099;-51
2021/06/18 03:35:15;;;;;;;39.92;30.02;;;;;;;19.09;96.33;101584.75;5133871;27;20411;-55
2021/06/18 03:37:43;;;;;;;35.72;27.42;;;;;;;19.09;96.21;101592.41;5134642;27;20554;-57
2021/06/18 03:40:12;;;;;;;31.80;25.75;;;;;;;19.08;96.48;101590.75;5134370;27;20134;-59
2021/06/18 03:42:42;;;;;;;36.00;28.33;;;;;;;19.06;96.89;101584.59;5133924;27;20124;-57
2021/06/18 03:45:12;;;;;;;32.83;25.52;;;;;;;19.06;96.91;101564.78;5134143;27;20082;-57
2021/06/18 03:47:41;;;;;;;40.08;30.05;;;;;;;19.05;96.78;101557.47;5133686;27;20119;-59
2021/06/18 03:50:12;;;;;;;37.85;30.77;;;;;;;19.04;97.34;101544.50;5134152;27;20088;-59
2021/06/18 03:52:41;;;;;;;38.88;30.23;;;;;;;18.99;97.25;101541.84;5134562;27;20454;-57
2021/06/18 03:55:10;;;;;;;34.25;27.25;;;;;;;18.98;97.63;101531.72;5133412;27;20070;-58
2021/06/18 03:57:41;;;;;;;35.78;29.85;;;;;;;18.97;97.75;101530.06;5134260;27;20053;-55
2021/06/18 04:00:10;;;;;;;37.97;30.48;;;;;;;18.97;97.99;101532.91;5133755;27;20095;-57
2021/06/18 04:02:40;;;;;;;35.42;30.58;;;;;;;18.92;98.07;101529.09;5133895;27;20061;-57
2021/06/18 04:05:09;;;;;;;38.97;31.55;;;;;;;18.90;98.09;101524.94;5133635;27;20090;-55
2021/06/18 04:07:43;;;;;;;39.50;31.33;;;;;;;18.89;98.09;101514.78;5123657;27;20576;-57
2021/06/18 04:10:12;;;;;;;39.55;32.65;;;;;;;18.87;98.35;101517.94;5129926;27;20089;-51
2021/06/18 04:12:42;;;;;;;35.42;30.88;;;;;;;18.86;98.39;101521.13;5132894;27;20094;-52
2021/06/18 04:15:12;;;;;;;42.95;33.60;;;;;;;18.86;98.65;101521.94;5133577;27;20107;-50
2021/06/18 04:17:40;;;;;;;42.47;34.25;;;;;;;18.85;99.03;101525.94;5133046;27;20074;-53
2021/06/18 04:20:09;;;;;;;36.90;31.00;;;;;;;18.86;98.88;101524.78;5133710;27;20107;-53
2021/06/18 04:22:40;;;;;;;32.63;27.92;;;;;;;18.87;99.26;101537.75;5132833;27;20436;-49
2021/06/18 04:25:08;;;;;;;30.02;23.20;;;;;;;18.89;99.24;101546.72;5132762;27;20047;-53
2021/06/18 04:27:36;;;;;;;29.52;24.65;;;;;;;18.91;99.27;101549.22;5133720;27;20092;-54
2021/06/18 04:30:06;;;;;;;37.60;30.20;;;;;;;18.93;99.02;101553.38;5133011;27;20088;-52
2021/06/18 04:32:34;;;;;;;40.10;28.35;;;;;;;18.93;99.28;101570.34;5133477;27;20115;-50
2021/06/18 04:35:02;;;;;;;26.20;21.13;;;;;;;18.95;99.42;101570.00;5133276;27;20080;-56
2021/06/18 04:37:30;;;;;;;38.03;32.83;;;;;;;18.96;98.95;101582.97;5132505;27;20050;-56
2021/06/18 04:40:00;;;;;;;36.55;31.17;;;;;;;18.95;98.96;101595.47;5133354;27;20153;-57
2021/06/18 04:42:34;;;;;;;34.30;29.70;;;;;;;18.93;99.26;101601.47;5133349;27;20043;-57
2021/06/18 04:45:02;;;;;;;23.83;20.30;;;;;;;18.93;99.05;101600.63;5132624;27;20047;-56
2021/06/18 04:47:30;;;;;;;33.38;29.13;;;;;;;18.92;99.53;101596.97;5132920;27;20043;-58
2021/06/18 04:49:57;;;;;;;35.35;28.85;;;;;;;18.93;99.31;101594.97;5132827;27;20043;-56
2021/06/18 04:52:25;;;;;;;37.45;29.85;;;;;;;18.93;99.45;101587.31;5132698;27;20051;-57
2021/06/18 04:54:56;;;;;;;45.33;35.28;;;;;;;18.90;99.37;101599.28;5132889;27;20445;-59
2021/06/18 04:57:25;;;;;;;34.63;27.38;;;;;;;18.89;99.52;101600.47;5129806;27;20441;-56
2021/06/18 04:59:53;;;;;;;35.35;28.50;;;;;;;18.88;99.46;101601.63;5132377;27;20051;-56
2021/06/18 05:02:21;;;;;;;31.85;26.77;;;;;;;18.87;99.69;101599.13;5114309;27;20097;-58
2021/06/18 05:04:48;;;;;;;28.33;24.60;;;;;;;18.86;99.83;101589.00;5120133;27;20047;-58
2021/06/18 05:07:16;;;;;;;36.35;27.58;;;;;;;18.86;99.81;101589.81;5132027;27;20095;-57
2021/06/18 05:09:44;;;;;;;37.42;24.75;;;;;;;18.88;100.00;101584.66;5132905;27;20047;-58
2021/06/18 05:12:12;;;;;;;29.20;22.30;;;;;;;18.89;100.00;101591.97;5132041;27;20062;-55
2021/06/18 05:14:42;;;;;;;33.80;26.33;;;;;;;18.89;99.99;101577.84;5132468;27;20043;-58
2021/06/18 05:17:09;;;;;;;31.45;23.40;;;;;;;18.91;100.00;101571.84;5132363;27;20096;-56
2021/06/18 05:19:37;;;;;;;27.60;22.15;;;;;;;18.91;100.00;101569.84;5132275;27;20050;-56
2021/06/18 05:22:05;;;;;;;27.90;22.25;;;;;;;18.91;100.00;101555.72;5132722;27;20070;-56
2021/06/18 05:24:33;;;;;;;29.70;24.98;;;;;;;18.90;100.00;101537.06;5132233;27;20488;-57
2021/06/18 05:27:02;;;;;;;32.45;26.17;;;;;;;18.89;100.00;101531.75;5131869;27;20050;-57
2021/06/18 05:29:29;;;;;;;33.42;26.60;;;;;;;18.87;100.00;101525.59;5132194;27;20055;-55
2021/06/18 05:31:59;;;;;;;30.45;24.73;;;;;;;18.87;100.00;101534.91;5132141;27;20131;-58
2021/06/18 05:34:27;;;;;;;33.33;27.80;;;;;;;18.86;100.00;101538.09;5131568;27;20047;-58
2021/06/18 05:36:54;;;;;;;34.22;26.02;;;;;;;18.86;100.00;101536.09;5132451;27;20047;-54
2021/06/18 05:39:22;;;;;;;31.95;25.88;;;;;;;18.87;100.00;101528.44;5132430;27;20039;-59
2021/06/18 05:41:50;;;;;;;40.10;27.95;;;;;;;18.86;100.00;101536.09;5130675;27;20047;-54
2021/06/18 05:44:19;;;;;;;33.75;23.55;;;;;;;18.86;100.00;101518.28;5132057;27;20051;-57
2021/06/18 05:46:46;;;;;;;34.08;24.90;;;;;;;18.86;100.00;101510.63;5131946;27;20063;-56
2021/06/18 05:49:16;;;;;;;34.17;26.67;;;;;;;18.85;100.00;101506.16;5113190;27;20083;-57
2021/06/18 05:51:43;;;;;;;35.97;25.33;;;;;;;18.85;100.00;101496.84;5132266;27;20051;-57
2021/06/18 05:54:12;;;;;;;39.67;26.80;;;;;;;18.86;100.00;101490.84;5131890;27;20130;-57
2021/06/18 05:56:40;;;;;;;30.55;24.25;;;;;;;18.85;100.00;101472.22;5131985;27;20074;-56
2021/06/18 05:59:08;;;;;;;38.78;25.35;;;;;;;18.86;100.00;101473.88;5131928;27;20057;-58
2021/06/18 06:01:36;;;;;;;30.13;23.17;;;;;;;18.85;100.00;101482.69;5131646;27;20086;-57
2021/06/18 06:04:04;;;;;;;36.60;26.20;;;;;;;18.83;100.00;101497.16;5131923;27;20903;-57
2021/06/18 06:06:33;;;;;;;23.25;17.25;;;;;;;18.84;100.00;101510.13;5132139;28;20043;-55
2021/06/18 06:09:01;;;;;;;29.02;21.13;;;;;;;18.85;100.00;101522.28;5131463;27;20389;-58
2021/06/18 06:11:30;;;;;;;25.92;19.80;;;;;;;18.86;100.00;101530.44;5131721;27;20470;-57
2021/06/18 06:14:00;;;;;;;34.03;24.00;;;;;;;18.87;100.00;101532.09;5131974;27;20039;-58
2021/06/18 06:16:28;;;;;;;23.35;18.45;;;;;;;18.89;100.00;101528.94;5131329;28;20058;-57
2021/06/18 06:18:56;;;;;;;26.02;17.35;;;;;;;18.92;100.00;101516.94;5131779;28;20131;-56
2021/06/18 06:21:25;;;;;;;28.17;21.48;;;;;;;18.95;100.00;101513.44;5131808;27;20051;-58
2021/06/18 06:23:54;;;;;;;28.33;20.60;;;;;;;18.98;100.00;101506.28;5130739;28;20364;-58
2021/06/18 06:26:22;;;;;;;28.10;20.20;;;;;;;19.00;100.00;101520.88;5131957;27;20040;-58
2021/06/18 06:28:50;;;;;;;32.45;22.63;;;;;;;19.03;100.00;101521.03;5131633;27;20100;-55
2021/06/18 06:31:18;;;;;;;32.20;24.35;;;;;;;19.07;100.00;101518.34;5131179;27;20126;-53
2021/06/18 06:33:46;;;;;;;30.27;20.00;;;;;;;19.07;100.00;101515.53;5131562;28;20560;-52
2021/06/18 06:36:14;;;;;;;34.58;22.83;;;;;;;19.10;100.00;101518.50;5131296;27;20108;-53
2021/06/18 06:38:42;;;;;;;29.48;23.85;;;;;;;19.13;100.00;101522.66;5131187;27;20054;-52
2021/06/18 06:41:12;;;;;;;28.48;21.08;;;;;;;19.16;100.00;101520.00;5131602;28;20096;-52
2021/06/18 06:43:39;;;;;;;32.25;22.92;;;;;;;19.17;100.00;101520.81;5131167;27;20108;-54
2021/06/18 06:46:07;;;;;;;30.90;23.23;;;;;;;19.17;100.00;101520.81;5131931;27;20039;-53
2021/06/18 06:48:35;;;;;;;33.65;22.13;;;;;;;19.19;100.00;101522.09;5135379;27;20126;-56
2021/06/18 06:51:03;;;;;;;26.92;21.70;;;;;;;19.23;100.00;101511.78;5134779;27;20096;-57
2021/06/18 06:53:31;;;;;;;28.85;23.73;;;;;;;19.27;100.00;101511.91;5135575;27;20095;-55
2021/06/18 06:55:59;;;;;;;32.72;24.30;;;;;;;19.28;100.00;101508.75;5135243;27;20051;-57
2021/06/18 06:58:28;;;;;;;29.08;23.45;;;;;;;19.32;100.00;101508.91;5135045;27;20078;-57
2021/06/18 07:00:56;;;;;;;26.58;21.50;;;;;;;19.33;100.00;101496.41;5117992;27;20374;-56
2021/06/18 07:03:25;;;;;;;32.50;24.20;;;;;;;19.37;100.00;101479.56;5135140;27;20067;-55
2021/06/18 07:05:53;;;;;;;30.20;24.90;;;;;;;19.40;100.00;101485.34;5134390;27;20077;-49
2021/06/18 07:08:23;;;;;;;30.70;24.85;;;;;;;19.39;100.00;101495.00;5134957;27;20039;-55
2021/06/18 07:10:53;;;;;;;35.90;24.88;;;;;;;19.42;100.00;101487.84;5134983;27;20104;-54
2021/06/18 07:13:22;;;;;;;29.27;24.25;;;;;;;19.45;100.00;101476.66;5134802;27;20384;-57
2021/06/18 07:15:52;;;;;;;32.50;26.08;;;;;;;19.48;100.00;101483.66;5134592;27;20067;-53
2021/06/18 07:18:20;;;;;;;30.88;24.42;;;;;;;19.52;100.00;101479.00;5135226;27;20119;-53
2021/06/18 07:20:48;;;;;;;31.40;25.13;;;;;;;19.56;100.00;101472.28;5124769;27;20043;-55
2021/06/18 07:23:16;;;;;;;26.63;23.23;;;;;;;19.58;100.00;101460.63;5135023;27;20035;-56
2021/06/18 07:25:44;;;;;;;25.02;21.95;;;;;;;19.58;100.00;101449.31;5133934;27;20078;-55
2021/06/18 07:28:12;;;;;;;25.40;21.75;;;;;;;19.59;100.00;101463.09;5134445;27;20065;-55
2021/06/18 07:30:41;;;;;;;27.60;24.13;;;;;;;19.65;100.00;101465.72;5134538;27;20558;-54
2021/06/18 07:33:10;;;;;;;28.40;24.00;;;;;;;19.69;100.00;101473.19;5134188;27;20100;-53
2021/06/18 07:35:39;;;;;;;27.42;24.08;;;;;;;19.75;100.00;101477.47;5134780;27;20124;-55
2021/06/18 07:38:07;;;;;;;26.27;23.55;;;;;;;19.84;100.00;101475.38;5122999;27;20035;-53
2021/06/18 07:40:35;;;;;;;23.30;20.85;;;;;;;19.91;100.00;101472.00;5134048;27;20066;-54
2021/06/18 07:43:04;;;;;;;26.02;22.23;;;;;;;19.97;100.00;101473.44;5134153;27;20078;-52
2021/06/18 07:45:57;;;;;;;28.50;23.33;;;;;;;20.00;100.00;101477.56;5119130;27;20053;-52
2021/06/18 07:48:40;;;;;;;27.33;23.55;;;;;;;20.05;100.00;101472.50;5123718;27;20118;-52
2021/06/18 07:51:09;;;;;;;26.00;22.38;;;;;;;20.14;100.00;101472.44;5134093;27;20560;-54
2021/06/18 07:53:37;;;;;;;24.17;21.65;;;;;;;20.28;100.00;101472.94;5134038;27;20126;-52
2021/06/18 07:56:07;;;;;;;23.95;21.00;;;;;;;20.43;100.00;101468.63;5123891;27;20173;-53
2021/06/18 07:58:36;;;;;;;23.30;21.02;;;;;;;20.55;100.00;101469.50;5133703;27;20047;-55
2021/06/18 08:01:04;;;;;;;20.75;18.52;;;;;;;20.63;100.00;101473.38;5122602;27;20487;-56
2021/06/18 08:03:32;;;;;;;23.20;20.85;;;;;;;20.72;100.00;101474.13;5130416;27;20066;-55
2021/06/18 08:06:01;;;;;;;22.10;19.85;;;;;;;20.87;100.00;101487.59;5122622;27;20068;-50
2021/06/18 08:08:29;;;;;;;19.85;17.80;;;;;;;21.06;100.00;101487.00;5133231;27;20050;-56
2021/06/18 08:10:57;;;;;;;23.27;20.95;;;;;;;21.15;100.00;101486.91;5134233;27;20404;-53
2021/06/18 08:13:25;;;;;;;19.30;17.33;;;;;;;21.18;100.00;101494.72;5116488;27;20364;-55
2021/06/18 08:15:53;;;;;;;17.80;15.88;;;;;;;21.21;100.00;101485.47;5129412;27;20077;-55
2021/06/18 08:18:21;;;;;;;18.38;16.27;;;;;;;21.27;100.00;101495.44;5133659;27;20047;-53
2021/06/18 08:20:49;;;;;;;17.67;15.75;;;;;;;21.31;100.00;101487.84;5133921;27;20545;-51
2021/06/18 08:23:18;;;;;;;16.83;15.23;;;;;;;21.33;99.54;101493.19;5133154;27;20054;-51
2021/06/18 08:25:48;;;;;;;17.48;15.77;;;;;;;21.25;98.86;101501.47;5133384;27;20488;-53
2021/06/18 08:28:16;;;;;;;15.80;14.02;;;;;;;21.26;99.02;101505.13;5133350;27;20098;-54
2021/06/18 08:30:44;;;;;;;16.30;14.65;;;;;;;21.27;98.99;101509.63;5132913;27;20453;-52
2021/06/18 08:33:16;;;;;;;17.70;15.90;;;;;;;21.28;98.61;101502.75;5124540;27;20046;-55
2021/06/18 08:35:45;;;;;;;16.48;14.88;;;;;;;21.31;99.04;101493.53;5133491;27;20043;-54
2021/06/18 08:38:12;;;;;;;15.25;13.70;;;;;;;21.30;97.89;101500.41;5132573;27;20073;-52
2021/06/18 08:40:43;;;;;;;18.33;16.50;;;;;;;21.27;97.85;101501.09;5133180;27;20499;-53
2021/06/18 08:43:11;;;;;;;18.20;16.30;;;;;;;21.23;97.93;101500.16;5131595;27;20070;-55
2021/06/18 08:45:39;;;;;;;18.83;16.98;;;;;;;21.17;97.35;101505.22;5130615;27;20057;-52
2021/06/18 08:48:07;;;;;;;16.88;15.07;;;;;;;21.11;97.19;101514.34;5132958;27;20035;-51
2021/06/18 08:50:35;;;;;;;19.25;17.25;;;;;;;21.06;97.19;101512.56;5129320;27;20242;-53
2021/06/18 08:53:05;;;;;;;18.13;16.23;;;;;;;21.06;97.53;101520.25;5132737;27;20039;-53
2021/06/18 08:55:33;;;;;;;16.95;15.23;;;;;;;21.03;97.37;101523.78;5132064;27;20443;-49
2021/06/18 08:58:04;;;;;;;18.00;15.90;;;;;;;21.01;97.53;101517.63;5129440;27;20206;-54
2021/06/18 09:00:32;;;;;;;20.20;18.15;;;;;;;20.98;97.46;101513.50;5132654;27;20538;-52
2021/06/18 09:03:01;;;;;;;18.05;16.17;;;;;;;20.98;97.14;101519.19;5132796;27;20043;-52
2021/06/18 09:05:31;;;;;;;18.40;16.33;;;;;;;20.95;97.25;101523.56;5131003;27;20496;-51
2021/06/18 09:08:01;;;;;;;18.70;15.98;;;;;;;20.92;97.21;101515.75;5132598;27;20449;-53
2021/06/18 09:10:35;;;;;;;16.20;14.50;;;;;;;20.91;97.07;101516.94;5114453;27;20146;-49
2021/06/18 09:13:12;;;;;;;19.98;17.15;;;;;;;20.90;96.79;101515.28;5131975;27;20047;-48
2021/06/18 09:15:41;;;;;;;18.67;16.77;;;;;;;20.90;97.26;101517.28;5132445;27;20078;-51
2021/06/18 09:18:24;;;;;;;18.52;16.63;;;;;;;20.89;97.08;101522.13;5132559;27;20127;-51
2021/06/18 09:20:53;;;;;;;17.90;16.10;;;;;;;20.92;97.16;101509.25;5131897;27;20495;-53
2021/06/18 09:23:22;;;;;;;17.45;15.55;;;;;;;20.89;97.13;101510.78;5132503;27;20039;-53
2021/06/18 09:26:28;;;;;;;18.52;16.65;;;;;;;20.91;97.29;101507.59;5131617;27;20477;-53
2021/06/18 09:29:06;;;;;;;19.23;17.33;;;;;;;20.95;97.37;101509.38;5122055;27;20095;-50
2021/06/18 09:31:37;;;;;;;17.10;15.40;;;;;;;21.03;97.22;101515.25;5129381;27;20035;-53
2021/06/18 09:34:07;;;;;;;16.05;14.45;;;;;;;21.07;97.11;101513.38;5120794;27;20496;-49
2021/06/18 09:36:36;;;;;;;17.15;15.38;;;;;;;21.18;97.11;101498.34;5131912;27;20499;-49
2021/06/18 09:39:06;;;;;;;16.25;14.60;;;;;;;21.36;97.08;101489.63;5132114;27;20509;-48
2021/06/18 09:41:39;;;;;;;17.67;14.85;;;;;;;21.48;96.29;101484.75;5116766;27;20039;-47
2021/06/18 09:44:10;;;;;;;16.70;15.07;;;;;;;21.53;95.44;101475.16;5131999;27;20092;-48
2021/06/18 09:46:52;;;;;;;17.50;15.70;;;;;;;21.52;94.44;101471.50;5131120;27;20642;-52
2021/06/18 09:49:41;;;;;;;15.85;14.25;;;;;;;21.71;94.07;101470.84;5131016;27;20054;-49
2021/06/18 09:52:11;;;;;;;14.45;12.98;;;;;;;21.96;93.85;101460.22;5121882;27;20043;-49
2021/06/18 09:54:43;;;;;;;13.75;10.20;;;;;;;22.13;92.44;101451.41;5131605;27;20051;-49
2021/06/18 09:57:12;;;;;;;;;;;;;;;22.10;91.06;101446.44;5131132;27;20043;-48
2021/06/18 09:59:54;;;;;;;13.88;11.57;;;;;;;22.17;91.81;101442.97;5131758;27;19927;-46
2021/06/18 10:02:35;;;;;;;12.20;10.88;;;;;;;22.29;91.45;101449.41;5130245;27;20043;-48
2021/06/18 10:05:04;;;;;;;10.13;9.10;;;;;;;22.38;90.53;101451.25;5126927;27;20837;-50
2021/06/18 10:07:34;;;;;;;12.35;10.65;;;;;;;22.36;89.76;101463.00;5130701;27;20047;-50
2021/06/18 10:10:05;;;;;;;12.40;11.10;;;;;;;22.30;88.90;101462.44;5131560;28;20039;-48
2021/06/18 10:12:33;;;;;;;14.52;12.40;;;;;;;22.23;88.42;101456.53;5131361;27;20043;-47
2021/06/18 10:15:07;;;;;;;12.73;11.30;;;;;;;22.12;88.25;101449.75;5130836;27;20039;-47
2021/06/18 10:17:37;;;;;;;11.88;10.68;;;;;;;22.20;88.76;101451.56;5131690;27;20051;-49
2021/06/18 10:20:08;;;;;;;11.63;10.27;;;;;;;22.36;88.53;101456.50;5128484;27;20043;-46
2021/06/18 10:22:44;;;;;;;11.77;8.57;;;;;;;22.41;88.23;101454.19;5135054;27;20468;-48
2021/06/18 10:25:15;;;;;;;11.07;9.02;;;;;;;22.38;87.62;101446.41;5131425;27;20127;-49
2021/06/18 10:27:47;;;;;;;10.27;9.23;;;;;;;22.37;87.49;101450.44;5135538;27;20059;-47
2021/06/18 10:30:32;;;;;;;9.88;8.32;;;;;;;22.32;86.97;101445.00;5134200;27;20051;-47
2021/06/18 10:33:01;;;;;;;10.38;9.30;;;;;;;22.32;87.07;101447.84;5135395;27;20051;-47
2021/06/18 10:35:49;;;;;;;9.88;8.45;;;;;;;22.27;86.30;101450.97;5135095;27;20103;-48
2021/06/18 10:38:26;;;;;;;10.65;9.23;;;;;;;22.22;86.36;101443.50;5135494;27;20073;-48
2021/06/18 10:40:55;;;;;;;10.77;9.52;;;;;;;22.17;86.43;101440.97;5133332;27;20464;-49
2021/06/18 10:43:34;;;;;;;13.40;10.48;;;;;;;22.07;86.23;101450.00;5134811;27;20051;-48
2021/06/18 10:46:07;;;;;;;11.00;9.48;;;;;;;22.05;86.70;101438.16;5134571;27;20051;-50
2021/06/18 10:49:04;;;;;;;10.82;9.40;;;;;;;22.04;86.32;101445.03;5134838;27;20057;-48
2021/06/18 10:51:36;;;;;;;10.40;8.52;;;;;;;22.00;86.69;101446.94;5123313;27;20051;-51
2021/06/18 10:54:07;;;;;;;9.20;7.93;;;;;;;21.99;86.65;101445.25;5134026;27;20071;-47
2021/06/18 10:56:58;;;;;;;10.27;9.17;;;;;;;21.89;86.30;101442.94;5134781;27;20117;-52
2021/06/18 10:59:31;;;;;;;9.70;8.70;;;;;;;21.80;86.59;101436.59;5131615;27;20047;-50
2021/06/18 11:02:02;;;;;;;10.38;7.72;;;;;;;21.71;86.47;101441.59;5135106;27;20051;-49
2021/06/18 11:04:40;;;;;;;9.02;7.35;;;;;;;21.65;86.18;101429.66;5133497;27;20096;-51
2021/06/18 11:07:27;;;;;;;9.38;7.45;;;;;;;21.70;86.55;101420.91;5124355;27;20059;-47
2021/06/18 11:10:00;;;;;;;9.02;8.13;;;;;;;21.75;86.48;101428.34;5134948;27;20035;-50
2021/06/18 11:12:40;;;;;;;14.18;8.82;;;;;;;21.78;86.10;101433.31;5134453;27;20071;-48
2021/06/18 11:15:45;;;;;;;11.15;9.00;;;;;;;21.76;84.93;101427.97;5134472;27;20046;-48
2021/06/18 11:18:19;;;;;;;9.65;8.65;;;;;;;21.81;86.09;101418.34;5133961;27;20096;-51
2021/06/18 11:20:50;;;;;;;9.88;7.95;;;;;;;21.88;85.96;101421.41;5134439;27;20046;-49
2021/06/18 11:23:21;;;;;;;8.07;7.18;;;;;;;21.95;85.57;101421.63;5134553;27;20051;-48
2021/06/18 11:25:52;;;;;;;9.38;7.47;;;;;;;22.00;85.90;101418.53;5134123;27;20541;-47